Time;durP1;ratioP1;P1;durP2;ratioP2;P2;SDS_P1;SDS_P2;PMS_P1;PMS_P2;Temp;Humidity;BMP_temperature;BMP_pressure;BME280_temperature;BME280_humidity;BME280_pressure;Samples;Min_cycle;Max_cycle;Signal;HPM_P1;HPM_P2
2023/10/11 00:01:29;;;;;;;;;;;;;;;21.07;52.34;101377.25;4956288;28;123490;-81
2023/10/11 00:03:58;;;;;;;;;;;;;;;21.05;52.37;101379.22;4956061;28;115765;-81
2023/10/11 00:06:33;;;;;;;;;;;;;;;21.03;52.38;101383.88;4942463;28;115561;-80
2023/10/11 00:09:00;;;;;;;;;;;;;;;21.00;52.31;101381.44;4933035;28;124487;-81
2023/10/11 00:11:30;;;;;;;;;;;;;;;20.98;52.31;101384.28;4939376;28;124280;-81
2023/10/11 00:13:57;;;;;;;;;;;;;;;20.97;52.35;101381.69;4946260;28;114636;-80
2023/10/11 00:16:24;;;;;;;;;;;;;;;20.95;52.34;101379.13;4947469;28;113697;-81
2023/10/11 00:18:55;;;;;;;;;;;;;;;20.93;52.31;101372.16;4927853;28;125074;-81
2023/10/11 00:21:35;;;;;;;;;;;;;;;20.92;52.22;101373.13;4934192;28;124702;-81
2023/10/11 00:24:02;;;;;;;;;;;;;;;20.88;52.31;101363.59;4948709;28;114123;-81
2023/10/11 00:26:30;;;;;;;;;;;;;;;20.87;52.27;101375.31;4947711;28;113731;-81
2023/10/11 00:28:57;;;;;;;;;;;;;;;20.84;52.36;101370.19;4946345;28;124798;-81
2023/10/11 00:31:24;;;;;;;;;;;;;;;20.82;52.33;101374.84;4930302;28;125460;-81
2023/10/11 00:33:54;;;;;;;;;;;;;;;20.82;52.32;101377.56;4931631;28;114309;-81
2023/10/11 00:36:29;;;;;;;;;;;;;;;20.77;52.35;101373.34;4943784;28;114479;-82
2023/10/11 00:38:56;;;;;;;;;;;;;;;20.73;52.30;101363.81;4948533;28;123598;-81
2023/10/11 00:41:30;;;;;;;;;;;;;;;20.71;52.31;101368.47;4949834;28;124986;-81
2023/10/11 00:43:57;;;;;;;;;;;;;;;20.70;52.31;101364.09;4932239;28;114920;-81
2023/10/11 00:46:27;;;;;;;;;;;;;;;20.68;52.38;101363.34;4947578;28;111824;-81
2023/10/11 00:49:00;;;;;;;;;;;;;;;20.66;52.46;101365.28;4925297;28;123423;-80
2023/10/11 00:51:29;;;;;;;;;;;;;;;20.64;52.40;101359.16;4950840;28;124025;-81
2023/10/11 00:53:58;;;;;;;;;;;;;;;20.62;52.41;101361.13;4944761;28;114315;-81
2023/10/11 00:56:31;;;;;;;;;;;;;;;20.61;52.43;101360.28;4949799;28;114590;-82
2023/10/11 00:58:59;;;;;;;;;;;;;;;20.61;52.48;101359.44;4946031;28;123435;-80
2023/10/11 01:01:26;;;;;;;;;;;;;;;20.60;52.38;101357.72;4949854;28;124857;-81
2023/10/11 01:03:55;;;;;;;;;;;;;;;20.57;52.33;101347.16;4950323;28;114479;-81
2023/10/11 01:06:25;;;;;;;;;;;;;;;20.56;52.38;101346.28;4950357;28;113703;-81
2023/10/11 01:08:53;;;;;;;;;;;;;;;20.55;52.48;101349.09;4950387;28;124803;-81
2023/10/11 01:11:21;;;;;;;;;;;;;;;20.55;52.39;101343.72;4949191;28;124250;-81
2023/10/11 01:13:51;;;;;;;;;;;;;;;20.54;52.46;101347.41;4931822;28;113560;-81
2023/10/11 01:16:28;;;;;;;;;;;;;;;20.54;52.38;101350.09;4935012;28;113467;-81
2023/10/11 01:18:55;;;;;;;;;;;;;;;20.53;52.43;101345.69;4929749;28;122172;-81
2023/10/11 01:21:22;;;;;;;;;;;;;;;20.52;52.32;101344.81;4947828;28;123633;-82
2023/10/11 01:23:49;;;;;;;;;;;;;;;20.54;52.34;101342.03;4947016;28;113506;-81
2023/10/11 01:26:17;;;;;;;;;;;;;;;20.52;52.38;101349.34;4949327;28;114156;-81
2023/10/11 01:28:51;;;;;;;;;;;;;;;20.52;52.41;101338.59;4948473;28;124838;-81
2023/10/11 01:31:18;;;;;;;;;;;;;;;20.51;52.41;101342.25;4949211;28;124300;-81
2023/10/11 01:33:48;;;;;;;;;;;;;;;20.50;52.39;101335.19;4943178;28;113904;-81
2023/10/11 01:36:21;;;;;;;;;;;;;;;20.49;52.33;101338.81;4939364;28;115336;-80
2023/10/11 01:38:48;;;;;;;;;;;;;;;20.47;52.31;101335.41;4933322;28;125759;-81
2023/10/11 01:41:16;;;;;;;;;;;;;;;20.45;52.34;101331.97;4952111;28;124530;-80
2023/10/11 01:43:45;;;;;;;;;;;;;;;20.43;52.40;101330.25;4933820;28;115578;-79
2023/10/11 01:46:14;;;;;;;;;;;;;;;20.41;52.30;101332.22;4952341;28;115876;-80
2023/10/11 01:48:41;;;;;;;;;;;;;;;20.39;52.41;101327.94;4935494;28;124033;-81
2023/10/11 01:51:09;;;;;;;;;;;;;;;20.38;52.28;101327.09;4962515;28;124257;-81
2023/10/11 01:53:36;;;;;;;;;;;;;;;20.37;52.32;101320.00;4951557;28;114976;-80
2023/10/11 01:56:03;;;;;;;;;;;;;;;20.36;52.27;101323.66;4947574;28;112847;-81
2023/10/11 01:58:30;;;;;;;;;;;;;;;20.35;52.38;101316.56;4950419;28;124986;-81
2023/10/11 02:00:57;;;;;;;;;;;;;;;20.34;52.27;101314.88;4942515;28;122803;-81
2023/10/11 02:03:24;;;;;;;;;;;;;;;20.33;52.30;101321.22;4951769;28;114274;-81
2023/10/11 02:05:51;;;;;;;;;;;;;;;20.34;52.38;101314.00;4952667;28;113326;-80
2023/10/11 02:08:18;;;;;;;;;;;;;;;20.33;52.31;101310.44;4941375;28;125738;-81
2023/10/11 02:10:46;;;;;;;;;;;;;;;20.32;52.30;101308.72;4958775;28;125364;-81
2023/10/11 02:13:13;;;;;;;;;;;;;;;20.31;52.27;101312.41;4953536;28;115368;-81
2023/10/11 02:15:40;;;;;;;;;;;;;;;20.30;52.23;101302.63;4930350;28;115024;-81
2023/10/11 02:18:08;;;;;;;;;;;;;;;20.31;52.30;101303.50;4933720;28;126129;-81
2023/10/11 02:20:43;;;;;;;;;;;;;;;20.29;52.27;101298.22;4952081;28;124790;-81
2023/10/11 02:23:13;;;;;;;;;;;;;;;20.27;52.32;101294.81;4931659;28;114081;-81
2023/10/11 02:25:41;;;;;;;;;;;;;;;20.26;52.21;101295.75;4957885;28;115020;-81
2023/10/11 02:28:09;;;;;;;;;;;;;;;20.24;52.36;101286.97;4934223;28;122528;-81
2023/10/11 02:30:41;;;;;;;;;;;;;;;20.22;52.30;101278.16;4944850;28;125053;-81
2023/10/11 02:33:11;;;;;;;;;;;;;;;20.22;52.22;101288.91;4962497;28;116642;-81
2023/10/11 02:35:52;;;;;;;;;;;;;;;20.20;52.32;101290.88;4934398;28;114597;-80
2023/10/11 02:38:22;;;;;;;;;;;;;;;20.18;52.20;101293.69;4945549;28;123872;-81
2023/10/11 02:40:56;;;;;;;;;;;;;;;20.17;52.24;101291.09;4963330;28;124333;-80
2023/10/11 02:43:24;;;;;;;;;;;;;;;20.15;52.20;101293.06;4933288;28;114519;-81
2023/10/11 02:45:52;;;;;;;;;;;;;;;20.14;52.29;101291.38;4949676;28;114519;-81
2023/10/11 02:48:19;;;;;;;;;;;;;;;20.11;52.31;101296.97;4948563;28;124692;-81
2023/10/11 02:50:48;;;;;;;;;;;;;;;20.10;52.27;101296.13;4946841;28;123308;-81
2023/10/11 02:53:22;;;;;;;;;;;;;;;20.08;52.27;101297.19;4950170;28;114242;-81
2023/10/11 02:55:57;;;;;;;;;;;;;;;20.06;52.15;101293.78;4947353;28;113877;-81
2023/10/11 02:58:29;;;;;;;;;;;;;;;20.02;52.18;101291.34;4945891;28;124491;-81
2023/10/11 03:01:02;;;;;;;;;;;;;;;20.00;52.31;101285.25;4956453;28;122111;-81
2023/10/11 03:03:49;;;;;;;;;;;;;;;19.98;52.20;101281.78;4960043;28;113530;-80
2023/10/11 03:06:18;;;;;;;;;;;;;;;19.96;52.21;101281.06;4954684;28;115006;-81
2023/10/11 03:08:46;;;;;;;;;;;;;;;19.94;52.15;101285.69;4951598;28;124165;-81
2023/10/11 03:11:16;;;;;;;;;;;;;;;19.92;52.29;101287.66;4951502;28;124208;-81
2023/10/11 03:13:43;;;;;;;;;;;;;;;19.89;52.23;101282.53;4929813;28;116097;-82
2023/10/11 03:16:12;;;;;;;;;;;;;;;19.88;52.28;101280.81;4938472;28;113312;-82
2023/10/11 03:18:40;;;;;;;;;;;;;;;19.84;52.16;101282.03;4947086;28;123709;-82
2023/10/11 03:21:20;;;;;;;;;;;;;;;19.82;52.16;101274.06;4950688;28;124236;-81
2023/10/11 03:24:03;;;;;;;;;;;;;;;19.80;52.24;101283.22;4948930;28;115072;-81
2023/10/11 03:28:58;;;;;;;;;;;;;;;19.73;52.21;101276.63;4951125;28;124292;-82
2023/10/11 03:31:29;;;;;;;;;;;;;;;19.70;52.18;101283.03;4945557;28;123891;-81
2023/10/11 03:33:56;;;;;;;;;;;;;;;19.68;52.18;101284.13;4937773;28;114385;-82
2023/10/11 03:36:43;;;;;;;;;;;;;;;19.63;52.26;101282.66;4947765;28;113359;-82
2023/10/11 03:39:10;;;;;;;;;;;;;;;19.61;52.18;101273.84;4955336;28;124608;-81
2023/10/11 03:41:44;;;;;;;;;;;;;;;19.58;52.25;101274.09;4946681;28;123950;-82
2023/10/11 03:44:17;;;;;;;;;;;;;;;19.55;52.34;101274.34;4949791;28;114737;-81
2023/10/11 03:46:56;;;;;;;;;;;;;;;19.52;52.18;101274.56;4935991;28;113857;-82
2023/10/11 03:51:50;;;;;;;;;;;;;;;19.47;52.33;101279.41;4948862;28;124272;-82
2023/10/11 03:54:23;;;;;;;;;;;;;;;19.44;52.27;101271.59;4947944;28;114447;-82
2023/10/11 03:56:55;;;;;;;;;;;;;;;19.41;52.30;101271.81;4943976;28;114363;-82
2023/10/11 03:59:26;;;;;;;;;;;;;;;19.37;52.21;101270.34;4948620;28;124072;-82
2023/10/11 04:01:53;;;;;;;;;;;;;;;19.34;52.22;101265.19;4953336;28;123183;-82
2023/10/11 04:04:21;;;;;;;;;;;;;;;19.31;52.26;101265.41;4923184;28;116133;-81
2023/10/11 04:06:51;;;;;;;;;;;;;;;19.26;52.29;101258.56;4948497;28;114778;-82
2023/10/11 04:12:04;;;;;;;;;;;;;;;19.18;52.30;101255.63;4948035;28;124080;-82
2023/10/11 04:14:41;;;;;;;;;;;;;;;19.14;52.20;101259.50;4935985;28;115197;-82
2023/10/11 04:17:24;;;;;;;;;;;;;;;19.10;52.27;101255.34;4943239;28;113748;-82
2023/10/11 04:20:16;;;;;;;;;;;;;;;19.06;52.42;101254.72;4942624;28;123995;-81
2023/10/11 04:22:51;;;;;;;;;;;;;;;19.03;52.29;101251.38;4930158;28;123382;-81
2023/10/11 04:25:23;;;;;;;;;;;;;;;19.00;52.32;101240.88;4945925;28;113831;-82
2023/10/11 04:27:58;;;;;;;;;;;;;;;18.96;52.42;101223.28;4946896;28;114194;-82
2023/10/11 04:30:41;;;;;;;;;;;;;;;18.94;52.41;101230.59;4946739;28;124077;-82
2023/10/11 04:33:12;;;;;;;;;;;;;;;18.91;52.38;101230.81;4961869;28;123166;-81
2023/10/11 04:35:42;;;;;;;;;;;;;;;18.89;52.52;101227.38;4947377;28;114506;-82
2023/10/11 04:38:13;;;;;;;;;;;;;;;18.85;52.43;101233.00;4947789;28;113957;-81
2023/10/11 04:40:42;;;;;;;;;;;;;;;18.84;52.53;101241.16;4957244;28;124931;-82
2023/10/11 04:43:24;;;;;;;;;;;;;;;18.82;52.58;101243.94;4891021;28;1168463;-82
2023/10/11 04:45:55;;;;;;;;;;;;;;;18.80;52.59;101240.53;4932358;28;115618;-82
2023/10/11 04:48:30;;;;;;;;;;;;;;;18.79;52.44;101254.03;4946625;28;113281;-81
2023/10/11 04:51:04;;;;;;;;;;;;;;;18.77;52.52;101251.44;4938387;28;124667;-81
2023/10/11 04:53:34;;;;;;;;;;;;;;;18.76;52.52;101244.38;4950194;28;123909;-82
2023/10/11 04:56:51;;;;;;;;;;;;;;;18.75;52.47;101248.00;4943953;28;113596;-81
2023/10/11 04:58:54;;;;;;;;;;;;;;;18.74;52.62;101249.00;4950660;28;113660;-81
2023/10/11 05:01:40;;;;;;;;;;;;;;;18.73;52.46;101255.31;4940071;28;124005;-82
2023/10/11 05:04:12;;;;;;;;;;;;;;;18.70;52.56;101250.16;4953943;28;124081;-81
2023/10/11 05:06:40;;;;;;;;;;;;;;;18.71;52.55;101246.53;4944675;28;115750;-82
2023/10/11 05:09:21;;;;;;;;;;;;;;;18.71;52.57;101253.72;4950084;28;115370;-81
2023/10/11 05:11:59;;;;;;;;;;;;;;;18.69;52.58;101253.84;4948209;28;124185;-82
2023/10/11 05:14:29;;;;;;;;;;;;;;;18.68;52.58;101252.09;4950493;28;123337;-82
2023/10/11 05:17:16;;;;;;;;;;;;;;;18.67;52.64;101250.41;4944996;28;115246;-82
2023/10/11 05:19:45;;;;;;;;;;;;;;;18.67;52.72;101250.41;4945558;28;113160;-82
2023/10/11 05:33:09;;;;;;;;;;;;;;;18.64;52.64;101261.34;4946766;28;123445;-81
2023/10/11 05:52:19;;;;;;;;;;;;;;;18.48;52.83;101289.28;4947038;28;114022;-82
2023/10/11 05:54:46;;;;;;;;;;;;;;;18.48;52.77;101283.94;4947736;28;124192;-82
2023/10/11 05:57:13;;;;;;;;;;;;;;;18.48;52.92;101291.97;4948516;28;123675;-82
2023/10/11 05:59:47;;;;;;;;;;;;;;;18.48;52.71;101289.28;4952356;28;115225;-81
2023/10/11 06:02:14;;;;;;;;;;;;;;;18.48;52.67;101294.66;4933110;28;114847;-80
2023/10/11 06:04:42;;;;;;;;;;;;;;;18.47;52.74;101287.56;4947030;28;124395;-81
2023/10/11 06:07:13;;;;;;;;;;;;;;;18.47;52.65;101286.72;4946415;28;123168;-81
2023/10/11 06:09:43;;;;;;;;;;;;;;;18.44;52.70;101282.44;4921686;28;113711;-81
2023/10/11 06:12:23;;;;;;;;;;;;;;;18.44;52.88;101287.81;4935630;28;113237;-80
2023/10/11 06:14:54;;;;;;;;;;;;;;;18.43;52.72;101286.06;4942020;28;124328;-80
2023/10/11 06:17:41;;;;;;;;;;;;;;;18.44;52.70;101286.91;4937400;28;124016;-81
2023/10/11 06:20:27;;;;;;;;;;;;;;;18.43;52.72;101283.38;4943631;28;115097;-80
2023/10/11 06:22:56;;;;;;;;;;;;;;;18.41;52.88;101279.97;4934838;28;113042;-82
2023/10/11 06:25:23;;;;;;;;;;;;;;;18.41;52.95;101271.91;4933221;28;124657;-81
2023/10/11 06:30:24;;;;;;;;;;;;;;;18.42;52.90;101268.28;4950929;28;112945;-81
2023/10/11 06:32:52;;;;;;;;;;;;;;;18.44;53.00;101271.72;4936866;28;112439;-81
2023/10/11 06:35:25;;;;;;;;;;;;;;;18.45;52.76;101268.03;4933175;28;123835;-82
2023/10/11 06:37:52;;;;;;;;;;;;;;;18.47;53.00;101276.84;4932418;28;123769;-82
2023/10/11 06:40:38;;;;;;;;;;;;;;;18.45;52.89;101262.69;4934093;28;113597;-82
2023/10/11 06:43:06;;;;;;;;;;;;;;;18.47;53.04;101275.97;4933427;28;113811;-82
2023/10/11 06:45:34;;;;;;;;;;;;;;;18.47;53.01;101274.16;4932666;28;125920;-81
2023/10/11 06:48:06;;;;;;;;;;;;;;;18.49;53.04;101280.25;4936410;28;123091;-81
2023/10/11 06:50:37;;;;;;;;;;;;;;;18.51;53.11;101282.00;4942845;28;115769;-81
2023/10/11 06:53:07;;;;;;;;;;;;;;;18.56;53.17;101290.56;4947714;28;114101;-81
2023/10/11 06:55:35;;;;;;;;;;;;;;;18.59;53.20;101290.34;4945901;28;123580;-81
2023/10/11 06:58:08;;;;;;;;;;;;;;;18.65;53.00;101284.56;4948159;28;126195;-81
2023/10/11 07:00:45;;;;;;;;;;;;;;;18.69;53.25;101286.03;4936499;28;114486;-80
2023/10/11 07:06:11;;;;;;;;;;;;;;;18.78;53.21;101280.00;4944522;28;124455;-81
2023/10/11 07:08:49;;;;;;;;;;;;;;;18.83;53.24;101283.22;4932468;28;124930;-81
2023/10/11 07:11:36;;;;;;;;;;;;;;;18.89;53.24;101283.75;4931576;28;114495;-81
2023/10/11 07:14:05;;;;;;;;;;;;;;;18.95;53.10;101276.13;4922389;28;111972;-81
2023/10/11 07:16:33;;;;;;;;;;;;;;;18.99;53.07;101282.13;4949615;28;123124;-81
2023/10/11 07:19:00;;;;;;;;;;;;;;;19.03;53.08;101288.97;4933442;28;125330;-81
2023/10/11 07:21:48;;;;;;;;;;;;;;;19.09;53.11;101293.88;4936156;28;112494;-81
2023/10/11 07:24:33;;;;;;;;;;;;;;;19.16;53.22;101305.91;4947482;28;113203;-81
2023/10/11 07:27:08;;;;;;;;;;;;;;;19.22;53.23;101321.53;4943159;28;124321;-82
2023/10/11 07:29:42;;;;;;;;;;;;;;;19.29;53.16;101321.97;4944511;28;123897;-81
2023/10/11 07:32:15;;;;;;;;;;;;;;;19.36;53.27;101330.41;4950483;28;114027;-82
2023/10/11 07:34:42;;;;;;;;;;;;;;;19.42;53.33;101327.25;4951583;28;113984;-81
2023/10/11 07:37:12;;;;;;;;;;;;;;;19.49;53.23;101328.50;4957872;28;124026;-81
2023/10/11 07:39:41;;;;;;;;;;;;;;;19.57;53.35;101331.50;4960756;28;124222;-81
2023/10/11 07:42:08;;;;;;;;;;;;;;;19.65;53.34;101334.44;4950723;28;115476;-82
2023/10/11 07:44:38;;;;;;;;;;;;;;;19.74;53.33;101329.38;4965826;28;113303;-81
2023/10/11 07:47:15;;;;;;;;;;;;;;;19.84;53.34;101316.97;4949276;28;123782;-82
2023/10/11 07:49:43;;;;;;;;;;;;;;;19.92;53.22;101303.78;4949245;28;124092;-81
2023/10/11 07:52:13;;;;;;;;;;;;;;;20.00;53.21;101303.19;4936348;28;115527;-81
2023/10/11 07:54:40;;;;;;;;;;;;;;;20.09;53.25;101307.00;4948563;28;113617;-81
2023/10/11 07:57:13;;;;;;;;;;;;;;;20.17;53.30;101312.63;4950772;28;124653;-81
2023/10/11 07:59:45;;;;;;;;;;;;;;;20.26;53.16;101309.22;4942422;28;123152;-81
2023/10/11 08:02:29;;;;;;;;;;;;;;;20.34;53.25;101304.09;4935409;28;113925;-81
2023/10/11 08:04:59;;;;;;;;;;;;;;;20.43;53.13;101303.34;4949868;28;113184;-81
2023/10/11 08:07:26;;;;;;;;;;;;;;;20.52;53.19;101307.16;4945867;28;123251;-81
2023/10/11 08:09:55;;;;;;;;;;;;;;;20.61;53.15;101311.84;4949688;28;124875;-81
2023/10/11 08:12:23;;;;;;;;;;;;;;;20.67;53.16;101305.09;4946992;28;114659;-81
2023/10/11 08:14:56;;;;;;;;;;;;;;;20.75;53.13;101308.03;4949973;28;113836;-81
2023/10/11 08:17:28;;;;;;;;;;;;;;;20.84;53.13;101300.19;4924079;28;124920;-82
2023/10/11 08:19:56;;;;;;;;;;;;;;;20.92;53.10;101308.50;4964606;28;124807;-80
2023/10/11 08:22:23;;;;;;;;;;;;;;;20.99;53.04;101312.41;4948334;28;114983;-82
2023/10/11 08:24:51;;;;;;;;;;;;;;;21.05;53.13;101309.19;4947973;28;114172;-80
2023/10/11 08:27:28;;;;;;;;;;;;;;;21.11;53.07;101308.69;4927610;28;124089;-81
2023/10/11 08:30:16;;;;;;;;;;;;;;;21.16;53.04;101309.19;4947399;28;124937;-81
2023/10/11 08:32:43;;;;;;;;;;;;;;;21.20;52.91;101310.63;4949965;28;115339;-81
2023/10/11 08:35:16;;;;;;;;;;;;;;;21.26;52.91;101308.41;4961316;28;115445;-81
2023/10/11 08:37:45;;;;;;;;;;;;;;;21.33;52.96;101306.94;4948886;28;124075;-81
2023/10/11 08:40:29;;;;;;;;;;;;;;;21.37;52.90;101308.38;4949899;28;124000;-81
2023/10/11 08:43:01;;;;;;;;;;;;;;;21.44;53.08;101309.63;4937199;28;113525;-81
2023/10/11 08:45:33;;;;;;;;;;;;;;;21.51;52.91;101310.81;4948116;28;113687;-81
2023/10/11 08:48:03;;;;;;;;;;;;;;;21.60;53.04;101313.72;4945603;28;124528;-81
2023/10/11 08:50:35;;;;;;;;;;;;;;;21.68;52.97;101311.22;4930228;28;123700;-81
2023/10/11 08:53:09;;;;;;;;;;;;;;;21.75;53.06;101329.44;4939684;28;114594;-80
2023/10/11 08:55:39;;;;;;;;;;;;;;;21.86;52.99;101325.00;4951326;28;113174;-81
2023/10/11 08:58:12;;;;;;;;;;;;;;;21.94;52.93;101328.75;4947432;28;125460;-80
2023/10/11 09:00:47;;;;;;;;;;;;;;;22.03;52.87;101316.28;4948370;28;125271;-80
2023/10/11 09:03:18;;;;;;;;;;;;;;;22.11;52.90;101319.22;4949672;28;114106;-80
2023/10/11 09:05:47;;;;;;;;;;;;;;;22.21;52.85;101324.66;4948509;28;112908;-80
2023/10/11 09:08:31;;;;;;;;;;;;;;;22.30;53.02;101340.09;4948702;28;124178;-80
2023/10/11 09:11:11;;;;;;;;;;;;;;;22.36;52.74;101338.69;4931995;28;122932;-80
2023/10/11 09:13:39;;;;;;;;;;;;;;;22.41;52.84;101358.03;4943854;28;114694;-80
2023/10/11 09:16:12;;;;;;;;;;;;;;;22.43;52.64;101368.69;4950626;28;113501;-80
2023/10/11 09:18:42;;;;;;;;;;;;;;;22.44;52.68;101368.56;4932171;28;125437;-80
2023/10/11 09:21:15;;;;;;;;;;;;;;;22.47;52.66;101362.03;4964676;28;123723;-80
2023/10/11 09:23:46;;;;;;;;;;;;;;;22.51;52.69;101363.50;4946149;28;116147;-80
2023/10/11 09:26:21;;;;;;;;;;;;;;;22.52;52.72;101349.00;4952687;28;115315;-80
2023/10/11 09:28:56;;;;;;;;;;;;;;;22.56;52.65;101355.81;4950077;28;123947;-80
2023/10/11 09:31:24;;;;;;;;;;;;;;;22.59;52.71;101355.56;4947713;28;124895;-80
2023/10/11 09:33:53;;;;;;;;;;;;;;;22.59;52.55;101355.56;4939691;28;114539;-80
2023/10/11 09:36:24;;;;;;;;;;;;;;;22.61;52.56;101358.97;4950819;28;114460;-80
2023/10/11 09:38:54;;;;;;;;;;;;;;;22.62;52.57;101349.03;4930569;28;124146;-80
2023/10/11 09:41:40;;;;;;;;;;;;;;;22.64;52.63;101353.31;4930689;28;122895;-80
2023/10/11 09:44:11;;;;;;;;;;;;;;;22.65;52.66;101354.16;4930631;28;114404;-80
2023/10/11 09:46:43;;;;;;;;;;;;;;;22.66;52.59;101361.25;4929877;28;113672;-80
2023/10/11 09:49:13;;;;;;;;;;;;;;;22.64;52.57;101358.72;4928091;28;124559;-80
2023/10/11 09:51:41;;;;;;;;;;;;;;;22.61;52.59;101372.47;4942357;28;123689;-80
2023/10/11 09:54:12;;;;;;;;;;;;;;;22.61;52.58;101374.34;4930892;28;114091;-80
2023/10/11 09:56:48;;;;;;;;;;;;;;;22.58;52.61;101359.25;4944649;28;113539;-80
2023/10/11 09:59:24;;;;;;;;;;;;;;;22.57;52.60;101365.66;4947118;28;124319;-80
2023/10/11 10:01:56;;;;;;;;;;;;;;;22.55;52.47;101370.34;4952617;28;124932;-80
2023/10/11 10:04:41;;;;;;;;;;;;;;;22.53;52.65;101377.72;4951401;28;115054;-80
2023/10/11 10:07:12;;;;;;;;;;;;;;;22.51;52.57;101368.91;4938960;28;113904;-80
2023/10/11 10:09:52;;;;;;;;;;;;;;;22.50;52.75;101361.78;4952310;28;124138;-80
2023/10/11 10:12:25;;;;;;;;;;;;;;;22.48;52.67;101371.84;4953096;28;124053;-80
2023/10/11 10:15:02;;;;;;;;;;;;;;;22.48;52.68;101370.00;4939276;28;115299;-80
2023/10/11 10:17:30;;;;;;;;;;;;;;;22.48;52.73;101355.66;4947980;28;113645;-80
2023/10/11 10:20:17;;;;;;;;;;;;;;;22.46;52.93;101353.09;4937424;28;124191;-80
2023/10/11 10:23:04;;;;;;;;;;;;;;;22.46;52.94;101366.56;4941248;28;123183;-80
2023/10/11 10:25:31;;;;;;;;;;;;;;;22.49;52.90;101365.44;4950515;28;112966;-80
2023/10/11 10:27:58;;;;;;;;;;;;;;;22.48;52.74;101371.84;4946491;28;113592;-80
2023/10/11 10:30:28;;;;;;;;;;;;;;;22.49;52.82;101370.84;4941241;28;123888;-80
2023/10/11 10:33:18;;;;;;;;;;;;;;;22.49;52.74;101368.16;4945200;28;124497;-80
2023/10/11 10:35:45;;;;;;;;;;;;;;;22.46;52.81;101371.13;4944535;28;115163;-81
2023/10/11 10:38:12;;;;;;;;;;;;;;;22.44;52.88;101365.00;4935546;28;113582;-81
2023/10/11 10:40:45;;;;;;;;;;;;;;;22.42;52.74;101365.13;4941873;28;123396;-80
2023/10/11 10:43:20;;;;;;;;;;;;;;;22.41;52.87;101363.41;4938874;28;124612;-80
2023/10/11 10:45:50;;;;;;;;;;;;;;;22.43;52.91;101366.00;4933022;28;114318;-80
2023/10/11 10:48:18;;;;;;;;;;;;;;;22.44;53.05;101373.97;4936648;28;114380;-81
2023/10/11 10:50:46;;;;;;;;;;;;;;;22.46;53.01;101373.84;4936964;28;123942;-80
2023/10/11 10:53:16;;;;;;;;;;;;;;;22.47;52.93;101380.91;4939738;28;124523;-80
2023/10/11 10:55:43;;;;;;;;;;;;;;;22.46;53.12;101382.78;4928776;28;114483;-80
2023/10/11 10:58:20;;;;;;;;;;;;;;;22.49;52.88;101392.44;4949074;28;114049;-81
2023/10/11 11:00:53;;;;;;;;;;;;;;;22.49;53.02;101392.44;4951003;28;124066;-80
2023/10/11 11:03:21;;;;;;;;;;;;;;;22.49;52.97;101387.03;4930570;28;123927;-79
2023/10/11 11:05:55;;;;;;;;;;;;;;;22.47;53.03;101383.63;4951860;28;114913;-79
2023/10/11 11:08:31;;;;;;;;;;;;;;;22.47;53.01;101383.63;4950220;28;115621;-79
2023/10/11 11:11:19;;;;;;;;;;;;;;;22.46;53.11;101381.94;4938271;28;123099;-80
2023/10/11 11:13:47;;;;;;;;;;;;;;;22.44;53.06;101383.91;4949916;28;124540;-80
2023/10/11 11:16:19;;;;;;;;;;;;;;;22.43;52.96;101371.38;4951619;28;114534;-80
2023/10/11 11:18:47;;;;;;;;;;;;;;;22.42;53.01;101370.53;4932732;28;113508;-80
2023/10/11 11:21:23;;;;;;;;;;;;;;;22.43;53.00;101366.00;4933739;28;124184;-79
2023/10/11 11:23:50;;;;;;;;;;;;;;;22.41;53.10;101359.88;4933317;28;127421;-81
2023/10/11 11:26:22;;;;;;;;;;;;;;;22.40;53.07;101350.09;4914889;28;113910;-79
2023/10/11 11:29:08;;;;;;;;;;;;;;;22.40;53.18;101344.69;4931754;28;113652;-79
2023/10/11 11:31:51;;;;;;;;;;;;;;;22.41;53.07;101352.63;4930039;28;124561;-79
2023/10/11 11:34:37;;;;;;;;;;;;;;;22.41;53.11;101349.91;4918142;28;124084;-80
2023/10/11 11:37:10;;;;;;;;;;;;;;;22.39;53.09;101359.16;4942569;28;114633;-80
2023/10/11 11:39:51;;;;;;;;;;;;;;;22.39;53.25;101342.97;4932555;28;113621;-80
2023/10/11 11:42:24;;;;;;;;;;;;;;;22.39;53.25;101326.75;4943310;28;124862;-80
2023/10/11 11:44:55;;;;;;;;;;;;;;;22.35;53.20;101321.63;4938060;28;123949;-80
2023/10/11 11:47:22;;;;;;;;;;;;;;;22.33;53.32;101312.81;4922704;28;114316;-80
2023/10/11 11:49:54;;;;;;;;;;;;;;;22.35;53.31;101316.22;4945471;28;112935;-80
2023/10/11 11:52:21;;;;;;;;;;;;;;;22.39;53.48;101310.56;4944483;28;124097;-79
2023/10/11 11:54:49;;;;;;;;;;;;;;;22.43;53.35;101306.59;4947859;28;124835;-80
2023/10/11 11:57:16;;;;;;;;;;;;;;;22.44;53.32;101319.13;4947465;28;114267;-79
2023/10/11 11:59:43;;;;;;;;;;;;;;;22.46;53.34;101306.34;4947814;28;114808;-80
2023/10/11 12:02:16;;;;;;;;;;;;;;;22.46;53.31;101295.56;4940650;28;124154;-80
2023/10/11 12:04:44;;;;;;;;;;;;;;;22.48;53.29;101298.97;4946007;28;124179;-80
2023/10/11 12:07:11;;;;;;;;;;;;;;;22.52;53.40;101281.50;4936628;28;114858;-80
2023/10/11 12:09:38;;;;;;;;;;;;;;;22.53;53.45;101269.72;4944002;28;113157;-79
2023/10/11 12:12:25;;;;;;;;;;;;;;;22.60;53.60;101270.88;4949865;28;124325;-80
2023/10/11 12:14:53;;;;;;;;;;;;;;;22.68;53.66;101279.16;4947270;28;123922;-80
2023/10/11 12:17:20;;;;;;;;;;;;;;;22.76;53.51;101280.31;4930022;28;115421;-79
2023/10/11 12:19:53;;;;;;;;;;;;;;;22.79;53.60;101263.81;4942713;28;113051;-80
2023/10/11 12:22:23;;;;;;;;;;;;;;;22.82;53.53;101279.75;4946551;28;124757;-80
2023/10/11 12:24:51;;;;;;;;;;;;;;;22.84;53.47;101267.81;4926250;28;126052;-80
2023/10/11 12:27:19;;;;;;;;;;;;;;;22.84;53.24;101269.66;4948679;28;115183;-80
2023/10/11 12:29:48;;;;;;;;;;;;;;;22.84;53.33;101275.06;4944849;28;114038;-80
2023/10/11 12:32:33;;;;;;;;;;;;;;;22.84;53.52;101272.38;4947206;28;124216;-80
2023/10/11 12:35:05;;;;;;;;;;;;;;;22.86;53.45;101268.53;4931470;28;123682;-80
2023/10/11 12:37:35;;;;;;;;;;;;;;;22.89;53.51;101264.72;4940485;28;114273;-80
2023/10/11 12:40:12;;;;;;;;;;;;;;;22.93;53.43;101260.72;4930761;28;114157;-80
2023/10/11 12:42:42;;;;;;;;;;;;;;;22.96;53.42;101263.13;4931122;28;124281;-80
2023/10/11 12:45:10;;;;;;;;;;;;;;;22.98;53.41;101274.69;4938282;28;125824;-79
2023/10/11 12:47:37;;;;;;;;;;;;;;;23.00;53.42;101271.81;4949193;28;115333;-80
2023/10/11 12:50:04;;;;;;;;;;;;;;;23.06;53.48;101276.72;4943862;28;114076;-79
2023/10/11 12:52:32;;;;;;;;;;;;;;;23.16;53.62;101282.13;4939795;28;124226;-79
2023/10/11 12:55:00;;;;;;;;;;;;;;;23.27;53.76;101263.06;4942734;28;124193;-79
2023/10/11 12:57:28;;;;;;;;;;;;;;;23.37;53.64;101263.91;4947677;28;113750;-79
2023/10/11 12:59:58;;;;;;;;;;;;;;;23.47;53.69;101259.38;4950336;28;114181;-79
2023/10/11 13:02:33;;;;;;;;;;;;;;;23.56;53.38;101256.78;4962274;28;124095;-79
2023/10/11 13:05:01;;;;;;;;;;;;;;;23.64;53.43;101248.81;4948694;28;124556;-80
2023/10/11 13:07:28;;;;;;;;;;;;;;;23.70;53.50;101240.13;4931104;28;114205;-78
2023/10/11 13:10:02;;;;;;;;;;;;;;;23.75;53.49;101240.53;4944399;28;113727;-79
2023/10/11 13:12:37;;;;;;;;;;;;;;;23.80;53.21;101237.44;4940931;28;125219;-78
2023/10/11 13:15:08;;;;;;;;;;;;;;;23.82;53.13;101236.28;4949560;28;123100;-79
2023/10/11 13:17:40;;;;;;;;;;;;;;;23.87;53.37;101239.41;4942669;28;114308;-78
2023/10/11 13:20:09;;;;;;;;;;;;;;;23.93;53.10;101239.84;4936411;28;113821;-78
2023/10/11 13:22:36;;;;;;;;;;;;;;;23.96;53.29;101236.81;4943366;28;125018;-78
2023/10/11 13:25:04;;;;;;;;;;;;;;;23.98;53.18;101240.22;4943798;28;123398;-78
2023/10/11 13:27:31;;;;;;;;;;;;;;;24.03;53.35;101224.41;4948505;28;115035;-78
2023/10/11 13:30:02;;;;;;;;;;;;;;;24.11;53.38;101224.53;4946383;28;114150;-78